Time;durP1;ratioP1;P1;durP2;ratioP2;P2;SDS_P1;SDS_P2;PMS_P1;PMS_P2;Temp;Humidity;BMP_temperature;BMP_pressure;BME280_temperature;BME280_humidity;BME280_pressure;Samples;Min_cycle;Max_cycle;Signal;HPM_P1;HPM_P2
2022/01/13 00:01:43;;;;;;;86.40;30.15;;;;;;;;;;5006222;28;20473;-64
2022/01/13 00:04:10;;;;;;;73.63;24.52;;;;;;;;;;5006023;28;20057;-65
2022/01/13 00:06:36;;;;;;;68.57;23.80;;;;;;;;;;5008764;28;20105;-65
2022/01/13 00:09:01;;;;;;;77.40;26.90;;;;;;;;;;5008868;28;20469;-65
2022/01/13 00:11:26;;;;;;;65.75;21.52;;;;;;;;;;5011965;28;20028;-65
2022/01/13 00:14:10;;;;;;;76.97;24.23;;;;;;;;;;5012280;28;20014;-65
2022/01/13 00:21:47;;;;;;;78.18;24.15;;;;;;;;;;5012099;28;20028;-65
2022/01/13 00:24:13;;;;;;;70.93;24.23;;;;;;;;;;5013217;28;20105;-64
2022/01/13 00:26:38;;;;;;;82.25;26.55;;;;;;;;;;5013424;28;20018;-64
2022/01/13 00:29:04;;;;;;;71.78;27.42;;;;;;;;;;5013761;28;20482;-65
2022/01/13 00:31:32;;;;;;;79.53;27.00;;;;;;;;;;5012953;28;20061;-64
2022/01/13 00:33:59;;;;;;;74.65;25.55;;;;;;;;;;5012521;28;20040;-65
2022/01/13 00:36:26;;;;;;;75.50;26.35;;;;;;;;;;5009409;28;20556;-65
2022/01/13 00:38:52;;;;;;;75.68;27.67;;;;;;;;;;5009387;28;20057;-65
2022/01/13 00:41:17;;;;;;;72.07;26.77;;;;;;;;;;5011908;28;20022;-64
2022/01/13 00:43:45;;;;;;;83.25;29.17;;;;;;;;;;5012291;28;20068;-65
2022/01/13 00:46:18;;;;;;;80.63;28.17;;;;;;;;;;5008989;28;20022;-65
2022/01/13 00:48:43;;;;;;;71.78;25.52;;;;;;;;;;5010326;28;20021;-64
2022/01/13 00:51:08;;;;;;;75.93;25.92;;;;;;;;;;5008920;28;20022;-64
2022/01/13 00:53:33;;;;;;;76.53;27.50;;;;;;;;;;5011816;28;20026;-64
2022/01/13 00:55:58;;;;;;;69.07;25.10;;;;;;;;;;5012630;28;20026;-64
2022/01/13 00:58:28;;;;;;;66.72;24.65;;;;;;;;;;5008618;28;20018;-65
2022/01/13 01:00:53;;;;;;;79.83;23.90;;;;;;;;;;5010970;28;20044;-65
2022/01/13 01:03:18;;;;;;;76.95;25.98;;;;;;;;;;5010295;28;20038;-65
2022/01/13 01:05:44;;;;;;;66.25;25.10;;;;;;;;;;5010579;28;20018;-65
2022/01/13 01:08:09;;;;;;;63.80;24.67;;;;;;;;;;5008462;28;20485;-65
2022/01/13 01:10:35;;;;;;;68.38;23.25;;;;;;;;;;5003790;28;20022;-65
2022/01/13 01:13:09;;;;;;;68.13;24.88;;;;;;;;;;5010446;28;20466;-64
2022/01/13 01:15:35;;;;;;;69.88;26.83;;;;;;;;;;5010386;28;20014;-65
2022/01/13 01:18:07;;;;;;;59.88;21.15;;;;;;;;;;5009073;28;20547;-65
2022/01/13 01:20:46;;;;;;;69.97;25.10;;;;;;;;;;5004484;28;20022;-64
2022/01/13 01:23:16;;;;;;;69.15;23.27;;;;;;;;;;5009780;28;20105;-64
2022/01/13 01:25:47;;;;;;;85.88;28.80;;;;;;;;;;5010031;28;20125;-64
2022/01/13 01:28:20;;;;;;;75.03;26.20;;;;;;;;;;5011195;28;20030;-65
2022/01/13 01:30:47;;;;;;;78.28;23.90;;;;;;;;;;5011741;28;20025;-65
2022/01/13 01:33:16;;;;;;;78.05;26.48;;;;;;;;;;5011721;28;20050;-65
2022/01/13 01:35:42;;;;;;;87.22;26.30;;;;;;;;;;5007229;28;20076;-64
2022/01/13 01:38:08;;;;;;;80.15;29.63;;;;;;;;;;5008894;28;20888;-65
2022/01/13 01:40:34;;;;;;;85.85;27.10;;;;;;;;;;5009600;28;20757;-65
2022/01/13 01:42:59;;;;;;;85.80;29.77;;;;;;;;;;5011788;28;20033;-64
2022/01/13 01:45:31;;;;;;;78.88;29.70;;;;;;;;;;5006921;28;20026;-65
2022/01/13 01:47:56;;;;;;;79.78;29.33;;;;;;;;;;5008492;28;20474;-66
2022/01/13 01:50:24;;;;;;;85.90;29.55;;;;;;;;;;5007638;28;20026;-65
2022/01/13 01:52:50;;;;;;;73.05;26.15;;;;;;;;;;5010598;28;20101;-66
2022/01/13 01:55:16;;;;;;;81.80;29.85;;;;;;;;;;5010973;28;20459;-65
2022/01/13 01:57:43;;;;;;;88.47;29.23;;;;;;;;;;5009640;28;20033;-65
2022/01/13 02:00:10;;;;;;;82.40;30.55;;;;;;;;;;5004863;28;20064;-65
2022/01/13 02:02:35;;;;;;;85.03;28.67;;;;;;;;;;5010435;28;20113;-65
2022/01/13 02:05:00;;;;;;;83.78;29.42;;;;;;;;;;5010281;28;20498;-64
2022/01/13 02:07:26;;;;;;;102.43;29.92;;;;;;;;;;5010723;28;20045;-65
2022/01/13 02:09:53;;;;;;;82.88;27.42;;;;;;;;;;5011249;28;20033;-66
2022/01/13 02:12:30;;;;;;;90.72;32.08;;;;;;;;;;5008684;28;20390;-64
2022/01/13 02:14:59;;;;;;;86.75;26.10;;;;;;;;;;5003773;28;20063;-65
2022/01/13 02:17:27;;;;;;;106.10;33.40;;;;;;;;;;5007779;28;20013;-64
2022/01/13 02:19:54;;;;;;;73.75;26.67;;;;;;;;;;5009855;28;20030;-65
2022/01/13 02:22:20;;;;;;;99.00;31.17;;;;;;;;;;5010103;28;20025;-65
2022/01/13 02:24:46;;;;;;;105.35;33.70;;;;;;;;;;5006690;28;20121;-64
2022/01/13 02:27:11;;;;;;;102.10;32.70;;;;;;;;;;5010469;28;20542;-65
2022/01/13 02:29:36;;;;;;;94.72;31.42;;;;;;;;;;5008906;28;20100;-64
2022/01/13 02:32:02;;;;;;;94.63;29.65;;;;;;;;;;5011244;28;20028;-66
2022/01/13 02:34:28;;;;;;;95.40;32.42;;;;;;;;;;5008847;28;20092;-66
2022/01/13 02:36:54;;;;;;;97.65;31.45;;;;;;;;;;5003786;28;20109;-65
2022/01/13 02:39:23;;;;;;;100.40;31.33;;;;;;;;;;5009502;28;20108;-65
2022/01/13 02:41:48;;;;;;;83.05;30.63;;;;;;;;;;5010102;28;20498;-65
2022/01/13 02:44:17;;;;;;;94.15;30.38;;;;;;;;;;5010258;28;20036;-65
2022/01/13 02:49:12;;;;;;;98.32;30.73;;;;;;;;;;5006701;28;20029;-65
2022/01/13 02:51:38;;;;;;;86.85;29.23;;;;;;;;;;5009431;28;20061;-65
2022/01/13 02:54:03;;;;;;;104.75;31.88;;;;;;;;;;5008311;28;20022;-65
2022/01/13 02:56:29;;;;;;;83.70;31.10;;;;;;;;;;5008691;28;20096;-65
2022/01/13 02:58:54;;;;;;;85.95;28.83;;;;;;;;;;5005086;28;20022;-65
2022/01/13 03:01:20;;;;;;;81.05;27.25;;;;;;;;;;5007867;28;20129;-64
2022/01/13 03:03:45;;;;;;;74.47;26.80;;;;;;;;;;5008687;28;20054;-64
2022/01/13 03:06:12;;;;;;;80.18;27.27;;;;;;;;;;5002712;28;20029;-66
2022/01/13 03:08:38;;;;;;;90.32;30.40;;;;;;;;;;5008877;28;21359;-66
2022/01/13 03:11:05;;;;;;;92.18;30.55;;;;;;;;;;5007419;28;20083;-65
2022/01/13 03:13:30;;;;;;;96.35;30.13;;;;;;;;;;5008190;28;20049;-65
2022/01/13 03:15:56;;;;;;;81.93;28.90;;;;;;;;;;5007618;28;20052;-65
2022/01/13 03:18:21;;;;;;;79.32;27.85;;;;;;;;;;5029620;23;20129;-67
2022/01/13 03:20:46;;;;;;;75.60;28.67;;;;;;;;;;5008173;28;20049;-67
2022/01/13 03:23:16;;;;;;;76.35;28.38;;;;;;;;;;5002418;28;20024;-68
2022/01/13 03:25:44;;;;;;;79.78;28.88;;;;;;;;;;5008085;28;20493;-67
2022/01/13 03:28:15;;;;;;;81.35;27.65;;;;;;;;;;5008739;28;20021;-67
2022/01/13 03:30:40;;;;;;;78.13;30.13;;;;;;;;;;5008217;28;20025;-67
2022/01/13 03:33:06;;;;;;;52.63;18.95;;;;;;;;;;5002832;28;20030;-67
2022/01/13 03:35:31;;;;;;;86.00;31.73;;;;;;;;;;5006377;28;20028;-67
2022/01/13 03:37:58;;;;;;;84.32;31.42;;;;;;;;;;5007315;28;20354;-67
2022/01/13 03:40:23;;;;;;;71.25;26.13;;;;;;;;;;5007984;28;20030;-67
2022/01/13 03:42:52;;;;;;;78.93;30.27;;;;;;;;;;5001043;28;20061;-67
2022/01/13 03:45:17;;;;;;;94.53;30.75;;;;;;;;;;4997753;28;20313;-67
2022/01/13 03:47:43;;;;;;;84.00;30.17;;;;;;;;;;5011957;28;20029;-67
2022/01/13 03:50:08;;;;;;;93.55;31.50;;;;;;;;;;5007867;28;20494;-67
2022/01/13 03:52:33;;;;;;;94.88;30.77;;;;;;;;;;5013299;28;20036;-67
2022/01/13 03:55:17;;;;;;;88.32;31.23;;;;;;;;;;5013122;28;20014;-67
2022/01/13 03:57:54;;;;;;;77.47;27.20;;;;;;;;;;5008530;28;20030;-67
2022/01/13 04:00:42;;;;;;;85.93;31.63;;;;;;;;;;5009600;28;20014;-68
2022/01/13 04:03:07;;;;;;;84.43;28.55;;;;;;;;;;5010018;28;20032;-67
2022/01/13 04:05:32;;;;;;;89.30;30.75;;;;;;;;;;5005560;28;20018;-67
2022/01/13 04:07:57;;;;;;;75.40;27.67;;;;;;;;;;5010246;28;20025;-67
2022/01/13 04:10:51;;;;;;;71.75;24.48;;;;;;;;;;5012635;28;20022;-67
2022/01/13 04:13:32;;;;;;;80.28;28.63;;;;;;;;;;5010319;28;20014;-67
2022/01/13 04:15:57;;;;;;;83.07;26.42;;;;;;;;;;5009829;28;20550;-67
2022/01/13 04:18:22;;;;;;;83.10;30.85;;;;;;;;;;5010056;28;20108;-67
2022/01/13 04:20:48;;;;;;;76.85;26.08;;;;;;;;;;5011285;28;20026;-67
2022/01/13 04:23:13;;;;;;;93.28;30.88;;;;;;;;;;5011079;28;20087;-67
2022/01/13 04:25:41;;;;;;;75.28;30.77;;;;;;;;;;5011077;28;20079;-67
2022/01/13 04:28:06;;;;;;;88.88;34.30;;;;;;;;;;5010187;28;20300;-67
2022/01/13 04:30:46;;;;;;;89.97;32.17;;;;;;;;;;5010078;28;20084;-67
2022/01/13 04:33:12;;;;;;;90.40;32.00;;;;;;;;;;5010507;28;20420;-67
2022/01/13 04:35:38;;;;;;;85.30;31.15;;;;;;;;;;5008583;28;20033;-67
2022/01/13 04:38:03;;;;;;;88.05;31.23;;;;;;;;;;5008989;28;20022;-67
2022/01/13 04:40:28;;;;;;;101.70;33.20;;;;;;;;;;5012156;28;20034;-67
2022/01/13 04:42:55;;;;;;;97.45;35.63;;;;;;;;;;5005406;28;20021;-67
2022/01/13 04:45:21;;;;;;;101.70;34.50;;;;;;;;;;5009752;28;20025;-67
2022/01/13 04:47:48;;;;;;;82.28;30.95;;;;;;;;;;5003990;28;20068;-67
2022/01/13 04:50:13;;;;;;;102.82;29.80;;;;;;;;;;5009965;28;20108;-68
2022/01/13 04:52:38;;;;;;;85.70;28.77;;;;;;;;;;5010675;28;20126;-67
2022/01/13 04:55:09;;;;;;;100.38;30.85;;;;;;;;;;5004544;28;20474;-67
2022/01/13 04:57:35;;;;;;;88.45;31.05;;;;;;;;;;4998839;28;20050;-67
2022/01/13 05:00:00;;;;;;;97.50;32.25;;;;;;;;;;5010224;28;20462;-67
2022/01/13 05:02:25;;;;;;;99.40;33.83;;;;;;;;;;5010936;28;20032;-67
2022/01/13 05:04:50;;;;;;;86.35;28.02;;;;;;;;;;5009164;28;20434;-67
2022/01/13 05:07:15;;;;;;;87.43;30.97;;;;;;;;;;5009163;28;20042;-67
2022/01/13 05:09:40;;;;;;;89.27;34.27;;;;;;;;;;5008853;28;20281;-67
2022/01/13 05:12:06;;;;;;;99.93;33.67;;;;;;;;;;5008595;28;20354;-67
2022/01/13 05:14:32;;;;;;;95.13;31.35;;;;;;;;;;5010139;28;20621;-67
2022/01/13 05:17:08;;;;;;;86.82;28.60;;;;;;;;;;5006186;28;20021;-67
2022/01/13 05:19:46;;;;;;;84.85;32.25;;;;;;;;;;5005852;28;20538;-67
2022/01/13 05:24:36;;;;;;;99.57;33.13;;;;;;;;;;5009413;28;20120;-67
2022/01/13 05:27:02;;;;;;;93.60;31.33;;;;;;;;;;5010476;28;20268;-67
2022/01/13 05:29:27;;;;;;;91.93;29.83;;;;;;;;;;5008286;28;20309;-67
2022/01/13 05:31:52;;;;;;;62.85;20.02;;;;;;;;;;5007393;28;20034;-68
2022/01/13 05:34:18;;;;;;;99.72;30.80;;;;;;;;;;5001882;28;20108;-68
2022/01/13 05:36:43;;;;;;;85.60;30.50;;;;;;;;;;5005546;28;20049;-68
2022/01/13 05:39:10;;;;;;;79.65;30.15;;;;;;;;;;5007176;28;20085;-68
2022/01/13 05:41:35;;;;;;;55.35;19.23;;;;;;;;;;5006073;28;20029;-67
2022/01/13 05:44:00;;;;;;;78.78;28.38;;;;;;;;;;5008251;28;20022;-67
2022/01/13 05:46:26;;;;;;;87.85;31.70;;;;;;;;;;5001939;28;20568;-67
2022/01/13 05:48:51;;;;;;;48.33;20.73;;;;;;;;;;5007061;28;20034;-68
2022/01/13 05:51:16;;;;;;;85.82;32.70;;;;;;;;;;5006281;28;20052;-67
2022/01/13 05:53:41;;;;;;;83.18;27.67;;;;;;;;;;5006358;28;20096;-67
2022/01/13 05:56:06;;;;;;;71.07;26.60;;;;;;;;;;5005296;28;20026;-68
2022/01/13 05:58:32;;;;;;;69.72;25.65;;;;;;;;;;5008355;28;20084;-67
2022/01/13 06:00:57;;;;;;;80.38;29.65;;;;;;;;;;5008400;28;20047;-68
2022/01/13 06:03:22;;;;;;;89.40;30.73;;;;;;;;;;4998633;28;20088;-67
2022/01/13 06:05:48;;;;;;;98.70;33.43;;;;;;;;;;5002102;28;20050;-68
2022/01/13 06:08:13;;;;;;;91.20;31.80;;;;;;;;;;5005960;28;20288;-67
2022/01/13 06:10:43;;;;;;;82.95;29.23;;;;;;;;;;5008428;28;20021;-68
2022/01/13 06:13:08;;;;;;;45.75;16.15;;;;;;;;;;5007222;28;20855;-67
2022/01/13 06:15:35;;;;;;;87.85;29.95;;;;;;;;;;5007694;28;20104;-67
2022/01/13 06:18:00;;;;;;;87.57;29.15;;;;;;;;;;5007422;28;20351;-68
2022/01/13 06:20:25;;;;;;;82.70;29.08;;;;;;;;;;5008172;28;20095;-67
2022/01/13 06:22:51;;;;;;;86.43;30.20;;;;;;;;;;5008485;28;20156;-67
2022/01/13 06:25:17;;;;;;;95.10;32.25;;;;;;;;;;5006061;28;20472;-67
2022/01/13 06:27:42;;;;;;;88.22;30.13;;;;;;;;;;4997039;28;20028;-67
2022/01/13 06:30:09;;;;;;;71.13;25.08;;;;;;;;;;5002399;28;20091;-68
2022/01/13 06:32:34;;;;;;;62.85;17.75;;;;;;;;;;5003998;28;20486;-68
2022/01/13 06:35:00;;;;;;;86.25;30.15;;;;;;;;;;5003387;28;20088;-67
2022/01/13 06:37:25;;;;;;;87.70;29.42;;;;;;;;;;5003868;28;20037;-67
2022/01/13 06:39:50;;;;;;;71.78;24.15;;;;;;;;;;5002949;28;20018;-67
2022/01/13 06:42:17;;;;;;;78.18;23.50;;;;;;;;;;5008246;28;20092;-67
2022/01/13 06:44:43;;;;;;;96.95;29.25;;;;;;;;;;5002853;28;20026;-67
2022/01/13 06:47:08;;;;;;;66.10;23.92;;;;;;;;;;5004021;28;20502;-67
2022/01/13 06:49:33;;;;;;;88.38;29.98;;;;;;;;;;5005892;28;20080;-67
2022/01/13 06:51:59;;;;;;;86.93;31.40;;;;;;;;;;5000961;28;20032;-67
2022/01/13 06:54:24;;;;;;;46.67;15.98;;;;;;;;;;5006584;28;20065;-69
2022/01/13 06:56:50;;;;;;;87.85;30.73;;;;;;;;;;5003105;28;20021;-67
2022/01/13 06:59:16;;;;;;;84.07;30.73;;;;;;;;;;5005445;28;20053;-67
2022/01/13 07:01:41;;;;;;;90.70;30.67;;;;;;;;;;5005603;28;20482;-67
2022/01/13 07:04:11;;;;;;;58.95;19.58;;;;;;;;;;5008152;28;20075;-67
2022/01/13 07:06:37;;;;;;;84.18;28.88;;;;;;;;;;5007459;28;20022;-67
2022/01/13 07:09:05;;;;;;;85.90;27.73;;;;;;;;;;5006290;28;20030;-67
2022/01/13 07:11:30;;;;;;;75.43;27.83;;;;;;;;;;5004754;28;20018;-67
2022/01/13 07:13:55;;;;;;;77.60;30.05;;;;;;;;;;5005872;28;20084;-67
2022/01/13 07:16:21;;;;;;;84.13;26.60;;;;;;;;;;5005708;28;20032;-67
2022/01/13 07:18:46;;;;;;;68.40;24.20;;;;;;;;;;5006803;28;20030;-67
2022/01/13 07:21:12;;;;;;;76.63;26.60;;;;;;;;;;5010245;28;20029;-67
2022/01/13 07:23:37;;;;;;;84.22;29.33;;;;;;;;;;5006648;28;20452;-67
2022/01/13 07:26:03;;;;;;;90.50;30.20;;;;;;;;;;5002179;28;20096;-68
2022/01/13 07:28:29;;;;;;;69.13;21.75;;;;;;;;;;5006367;28;20029;-68
2022/01/13 07:30:54;;;;;;;60.35;20.85;;;;;;;;;;5007405;28;20029;-67
2022/01/13 07:33:19;;;;;;;64.13;21.90;;;;;;;;;;5010284;28;20386;-67
2022/01/13 07:35:44;;;;;;;74.10;24.90;;;;;;;;;;5005608;28;20026;-67
2022/01/13 07:38:09;;;;;;;66.43;20.95;;;;;;;;;;5001736;28;20487;-67
2022/01/13 07:40:35;;;;;;;85.18;30.23;;;;;;;;;;5005577;28;20029;-67
2022/01/13 07:43:00;;;;;;;48.85;15.52;;;;;;;;;;5007036;28;20030;-67
2022/01/13 07:45:25;;;;;;;44.75;16.92;;;;;;;;;;5002852;28;20478;-67
2022/01/13 07:47:51;;;;;;;51.35;19.63;;;;;;;;;;5009070;28;20489;-66
2022/01/13 07:50:16;;;;;;;78.63;27.13;;;;;;;;;;5011606;28;20022;-67
2022/01/13 07:52:41;;;;;;;72.50;24.35;;;;;;;;;;5010129;28;20029;-67
2022/01/13 07:55:07;;;;;;;72.82;23.73;;;;;;;;;;5010069;28;20049;-67
2022/01/13 07:57:32;;;;;;;85.30;25.42;;;;;;;;;;5009917;28;20477;-67
2022/01/13 07:59:57;;;;;;;55.70;19.42;;;;;;;;;;5009862;28;20026;-66
2022/01/13 08:02:23;;;;;;;66.20;24.80;;;;;;;;;;5008250;28;20055;-66
2022/01/13 08:04:49;;;;;;;52.00;18.17;;;;;;;;;;5007800;28;20058;-66
2022/01/13 08:07:14;;;;;;;80.22;27.83;;;;;;;;;;5009200;28;20022;-66
2022/01/13 08:09:39;;;;;;;85.10;27.20;;;;;;;;;;5008945;28;20022;-66
2022/01/13 08:12:05;;;;;;;61.53;20.20;;;;;;;;;;5008188;28;20076;-66
2022/01/13 08:14:30;;;;;;;58.88;20.70;;;;;;;;;;5009101;28;20383;-67
2022/01/13 08:16:59;;;;;;;87.13;28.03;;;;;;;;;;5009452;28;20083;-67
2022/01/13 08:22:09;;;;;;;54.15;19.42;;;;;;;;;;5009992;28;20040;-67
2022/01/13 08:24:34;;;;;;;68.60;23.52;;;;;;;;;;5009171;28;20034;-67
2022/01/13 08:26:59;;;;;;;47.03;16.92;;;;;;;;;;5009429;28;20037;-67
2022/01/13 08:29:25;;;;;;;73.75;21.10;;;;;;;;;;5009410;28;20041;-67
2022/01/13 08:31:50;;;;;;;79.35;24.50;;;;;;;;;;5010239;28;20370;-67
2022/01/13 08:34:16;;;;;;;81.72;28.42;;;;;;;;;;5013518;28;20026;-67
2022/01/13 08:36:41;;;;;;;72.60;25.85;;;;;;;;;;5013269;28;20025;-67
2022/01/13 08:39:06;;;;;;;93.68;30.00;;;;;;;;;;5012709;28;20029;-67
2022/01/13 08:41:32;;;;;;;65.75;20.75;;;;;;;;;;5013564;28;20018;-67
2022/01/13 08:43:57;;;;;;;74.15;22.77;;;;;;;;;;5013122;28;20060;-67
2022/01/13 08:46:23;;;;;;;37.53;15.10;;;;;;;;;;5012484;28;20101;-67
2022/01/13 08:48:48;;;;;;;40.88;14.90;;;;;;;;;;5012527;28;20017;-67
2022/01/13 08:51:17;;;;;;;86.68;31.05;;;;;;;;;;5012986;28;20498;-67
2022/01/13 08:53:42;;;;;;;74.93;26.55;;;;;;;;;;5013093;28;20018;-67
2022/01/13 08:56:07;;;;;;;74.80;22.02;;;;;;;;;;5011835;28;20486;-67
2022/01/13 08:58:33;;;;;;;86.90;29.27;;;;;;;;;;5012281;28;20088;-66
2022/01/13 09:00:58;;;;;;;77.72;24.25;;;;;;;;;;5013029;28;20044;-67
2022/01/13 09:03:24;;;;;;;36.95;13.70;;;;;;;;;;5013170;28;20052;-67
2022/01/13 09:05:49;;;;;;;46.30;12.90;;;;;;;;;;5012842;28;20363;-66
2022/01/13 09:08:14;;;;;;;81.20;26.75;;;;;;;;;;5012450;28;20166;-67
2022/01/13 09:10:40;;;;;;;70.68;23.02;;;;;;;;;;5011471;28;20053;-67
2022/01/13 09:13:06;;;;;;;75.35;22.17;;;;;;;;;;5012396;28;20025;-67
2022/01/13 09:15:35;;;;;;;81.50;26.30;;;;;;;;;;5011275;28;20033;-67
2022/01/13 09:18:08;;;;;;;49.95;16.33;;;;;;;;;;5012820;28;20030;-67
2022/01/13 09:20:33;;;;;;;61.35;19.27;;;;;;;;;;5012440;28;20025;-67
2022/01/13 09:22:58;;;;;;;77.10;23.55;;;;;;;;;;5011731;28;20092;-67
2022/01/13 09:25:24;;;;;;;44.03;14.27;;;;;;;;;;5012597;28;20088;-67
2022/01/13 09:27:49;;;;;;;70.57;23.55;;;;;;;;;;5012073;28;20034;-67
2022/01/13 09:30:15;;;;;;;54.58;19.02;;;;;;;;;;5012293;28;20027;-67
2022/01/13 09:32:40;;;;;;;59.42;17.88;;;;;;;;;;5012294;28;20022;-68
2022/01/13 09:35:06;;;;;;;48.05;15.80;;;;;;;;;;5012643;28;20022;-67
2022/01/13 09:37:31;;;;;;;66.22;22.10;;;;;;;;;;5011568;28;20017;-67
2022/01/13 09:39:57;;;;;;;76.68;21.38;;;;;;;;;;5012138;28;20018;-67
2022/01/13 09:42:23;;;;;;;54.42;21.13;;;;;;;;;;5012396;28;20517;-67
2022/01/13 09:44:49;;;;;;;53.90;18.83;;;;;;;;;;5010716;28;20064;-67
2022/01/13 09:47:14;;;;;;;101.78;29.67;;;;;;;;;;5011789;28;20058;-67
2022/01/13 09:49:42;;;;;;;54.00;17.27;;;;;;;;;;5010947;28;20018;-67
2022/01/13 09:52:07;;;;;;;50.20;17.65;;;;;;;;;;5011867;28;20543;-67
2022/01/13 09:54:32;;;;;;;90.65;26.27;;;;;;;;;;5012057;28;20111;-67
2022/01/13 09:56:57;;;;;;;41.67;12.23;;;;;;;;;;4998686;28;20088;-67
2022/01/13 09:59:22;;;;;;;46.50;14.77;;;;;;;;;;5011931;28;20041;-67
2022/01/13 10:01:48;;;;;;;104.15;27.00;;;;;;;;;;5011697;28;20273;-67
2022/01/13 10:04:13;;;;;;;110.63;35.17;;;;;;;;;;5011782;28;20053;-67
2022/01/13 10:06:43;;;;;;;109.82;33.75;;;;;;;;;;5011649;28;20109;-67
2022/01/13 10:09:08;;;;;;;68.65;21.88;;;;;;;;;;5010254;28;20022;-67
2022/01/13 10:11:40;;;;;;;78.72;26.50;;;;;;;;;;5010919;28;20474;-67
2022/01/13 10:16:22;;;;;;;113.43;35.83;;;;;;;;;;5011675;28;20022;-68
2022/01/13 10:17:04;;;;;;;94.20;32.63;;;;;;;;;;5011038;28;20156;-67
2022/01/13 10:19:37;;;;;;;70.90;22.52;;;;;;;;;;4994420;28;20056;-68
2022/01/13 10:22:11;;;;;;;47.22;17.48;;;;;;;;;;5011468;28;20022;-68
2022/01/13 10:24:37;;;;;;;85.57;26.63;;;;;;;;;;5010343;28;20067;-68
2022/01/13 10:27:03;;;;;;;42.08;13.15;;;;;;;;;;5011351;28;20487;-67
2022/01/13 10:29:47;;;;;;;99.22;31.08;;;;;;;;;;5010945;28;20033;-67
2022/01/13 10:32:17;;;;;;;57.42;19.63;;;;;;;;;;5010908;28;20368;-67
2022/01/13 10:34:43;;;;;;;97.05;30.38;;;;;;;;;;5009348;28;20020;-67
2022/01/13 10:37:14;;;;;;;103.40;28.45;;;;;;;;;;5011205;28;20022;-67
2022/01/13 10:39:43;;;;;;;95.22;32.28;;;;;;;;;;5010643;28;20467;-67
2022/01/13 10:42:20;;;;;;;109.18;30.52;;;;;;;;;;5010323;28;20029;-67
2022/01/13 10:44:52;;;;;;;41.92;12.70;;;;;;;;;;5010183;28;20479;-67
2022/01/13 10:47:17;;;;;;;79.90;22.60;;;;;;;;;;5010884;28;20034;-67
2022/01/13 10:49:42;;;;;;;62.50;21.33;;;;;;;;;;5010691;28;20076;-67
2022/01/13 10:52:26;;;;;;;72.80;20.05;;;;;;;;;;5011274;28;20307;-67
2022/01/13 10:54:52;;;;;;;56.60;19.70;;;;;;;;;;5009823;28;20018;-67
2022/01/13 10:57:20;;;;;;;70.63;21.85;;;;;;;;;;5009396;28;20018;-67
2022/01/13 10:59:45;;;;;;;57.30;16.88;;;;;;;;;;5010290;28;20020;-67
2022/01/13 11:02:10;;;;;;;73.30;25.10;;;;;;;;;;5004539;28;20393;-67
2022/01/13 11:04:36;;;;;;;84.45;27.20;;;;;;;;;;5009940;28;20049;-67
2022/01/13 11:07:14;;;;;;;95.05;29.15;;;;;;;;;;5005191;28;20522;-67
2022/01/13 11:09:43;;;;;;;76.45;26.65;;;;;;;;;;5004451;28;20036;-67
2022/01/13 11:12:13;;;;;;;36.47;12.95;;;;;;;;;;5009834;28;20029;-67
2022/01/13 11:14:43;;;;;;;40.92;13.55;;;;;;;;;;5009442;28;20028;-67
2022/01/13 11:17:10;;;;;;;70.05;21.23;;;;;;;;;;5009808;28;20089;-67
2022/01/13 11:19:35;;;;;;;66.85;25.45;;;;;;;;;;5010241;28;20030;-67
2022/01/13 11:22:01;;;;;;;69.18;26.88;;;;;;;;;;5011967;28;20481;-68
2022/01/13 11:24:26;;;;;;;80.88;27.52;;;;;;;;;;5010284;28;20390;-68
2022/01/13 11:26:52;;;;;;;78.00;26.38;;;;;;;;;;5010142;28;20030;-68
2022/01/13 11:29:17;;;;;;;75.10;29.20;;;;;;;;;;5010352;28;20040;-68
2022/01/13 11:31:42;;;;;;;60.03;21.05;;;;;;;;;;5009825;28;20018;-67
2022/01/13 11:34:08;;;;;;;74.18;26.75;;;;;;;;;;5010329;28;20065;-68
2022/01/13 11:36:34;;;;;;;72.97;26.98;;;;;;;;;;5009901;28;20022;-68
2022/01/13 11:39:00;;;;;;;70.03;26.20;;;;;;;;;;5010595;28;20014;-68
2022/01/13 11:41:25;;;;;;;73.38;28.00;;;;;;;;;;5010386;28;20025;-68
2022/01/13 11:43:51;;;;;;;76.68;28.27;;;;;;;;;;5008878;28;20572;-68
2022/01/13 11:46:21;;;;;;;62.10;24.02;;;;;;;;;;5010337;28;20041;-68
2022/01/13 11:48:59;;;;;;;65.20;26.52;;;;;;;;;;5010075;28;20194;-68
2022/01/13 11:51:24;;;;;;;63.38;24.48;;;;;;;;;;5010217;28;20030;-67
2022/01/13 11:53:55;;;;;;;66.07;24.73;;;;;;;;;;5010621;28;20021;-68
2022/01/13 11:56:22;;;;;;;61.38;22.08;;;;;;;;;;5014633;28;20014;-68
2022/01/13 11:58:47;;;;;;;72.50;27.17;;;;;;;;;;5009088;28;20022;-68
2022/01/13 12:01:20;;;;;;;60.55;25.02;;;;;;;;;;5010202;28;20575;-68
2022/01/13 12:03:53;;;;;;;59.22;22.33;;;;;;;;;;5007981;28;20111;-68
2022/01/13 12:06:31;;;;;;;58.50;23.88;;;;;;;;;;5011665;28;20026;-68
2022/01/13 12:08:58;;;;;;;42.67;15.10;;;;;;;;;;5013730;28;20053;-68
2022/01/13 12:11:34;;;;;;;57.17;20.98;;;;;;;;;;5013705;28;20029;-68
2022/01/13 12:13:59;;;;;;;46.85;15.50;;;;;;;;;;5013440;28;20125;-68
2022/01/13 12:16:43;;;;;;;46.13;17.60;;;;;;;;;;5012491;28;20117;-68
2022/01/13 12:19:13;;;;;;;54.22;20.73;;;;;;;;;;5013240;28;20510;-68
2022/01/13 12:21:43;;;;;;;60.77;20.77;;;;;;;;;;5011572;28;20040;-68
2022/01/13 12:24:09;;;;;;;56.47;19.52;;;;;;;;;;5013333;28;20269;-68
2022/01/13 12:26:34;;;;;;;54.45;21.13;;;;;;;;;;5013609;28;20041;-68
2022/01/13 12:29:09;;;;;;;52.38;17.98;;;;;;;;;;5013298;28;20386;-68
2022/01/13 12:31:35;;;;;;;50.88;20.35;;;;;;;;;;5013498;28;20312;-68
2022/01/13 12:34:00;;;;;;;45.75;19.10;;;;;;;;;;5012309;28;20022;-68
2022/01/13 12:36:25;;;;;;;28.80;9.48;;;;;;;;;;5013697;28;20569;-68
2022/01/13 12:38:57;;;;;;;42.93;14.60;;;;;;;;;;5012945;28;20028;-68
2022/01/13 12:41:25;;;;;;;44.13;17.38;;;;;;;;;;5006937;28;20800;-68
2022/01/13 12:44:02;;;;;;;50.13;17.63;;;;;;;;;;5012171;28;20037;-68
2022/01/13 12:46:28;;;;;;;54.65;23.15;;;;;;;;;;5012443;28;20486;-68
2022/01/13 12:48:54;;;;;;;41.83;16.42;;;;;;;;;;5011964;28;20072;-68
2022/01/13 12:51:20;;;;;;;37.38;12.98;;;;;;;;;;5013364;28;20026;-68
2022/01/13 12:53:46;;;;;;;50.53;16.05;;;;;;;;;;5012377;28;20026;-68
2022/01/13 12:56:13;;;;;;;34.97;14.50;;;;;;;;;;5013158;28;20022;-68
2022/01/13 12:58:41;;;;;;;51.35;18.67;;;;;;;;;;5012506;28;20018;-68
2022/01/13 13:01:08;;;;;;;49.15;17.60;;;;;;;;;;5012934;28;20045;-68
2022/01/13 13:03:34;;;;;;;40.38;17.98;;;;;;;;;;5013292;28;20552;-68
2022/01/13 13:05:59;;;;;;;31.23;8.00;;;;;;;;;;5012539;28;20036;-68
2022/01/13 13:08:26;;;;;;;43.50;15.75;;;;;;;;;;5012490;28;20112;-68
2022/01/13 13:10:53;;;;;;;46.28;19.40;;;;;;;;;;5011073;28;20018;-68
2022/01/13 13:13:19;;;;;;;42.65;15.27;;;;;;;;;;5012771;28;20033;-68
2022/01/13 13:15:53;;;;;;;44.35;12.43;;;;;;;;;;5012614;28;20009;-68
2022/01/13 13:18:20;;;;;;;35.92;11.63;;;;;;;;;;5011441;28;20153;-68
2022/01/13 13:20:48;;;;;;;42.30;16.27;;;;;;;;;;5011117;28;20044;-68
2022/01/13 13:23:14;;;;;;;51.28;19.33;;;;;;;;;;5011608;28;20502;-68
2022/01/13 13:25:41;;;;;;;42.72;16.75;;;;;;;;;;5012304;28;20030;-68
2022/01/13 13:28:16;;;;;;;59.42;16.88;;;;;;;;;;5012201;28;20449;-68
2022/01/13 13:30:48;;;;;;;53.15;17.40;;;;;;;;;;5012198;28;20498;-68
2022/01/13 13:33:14;;;;;;;49.92;14.30;;;;;;;;;;5012318;28;20065;-68
2022/01/13 13:35:39;;;;;;;43.65;17.48;;;;;;;;;;5011924;28;20061;-68
2022/01/13 13:38:09;;;;;;;47.28;17.02;;;;;;;;;;5011888;28;20029;-68
2022/01/13 13:40:40;;;;;;;42.60;15.88;;;;;;;;;;5012523;28;20520;-68
2022/01/13 13:43:08;;;;;;;44.83;17.08;;;;;;;;;;5012341;28;20105;-68
2022/01/13 13:45:33;;;;;;;44.28;16.15;;;;;;;;;;5011682;28;20021;-68
2022/01/13 13:47:59;;;;;;;43.38;15.85;;;;;;;;;;5012084;28;20374;-68
2022/01/13 13:50:25;;;;;;;48.58;15.80;;;;;;;;;;5012053;28;20670;-68
2022/01/13 13:53:03;;;;;;;45.83;16.58;;;;;;;;;;5012231;28;20021;-68
2022/01/13 13:55:28;;;;;;;29.95;10.40;;;;;;;;;;5012128;28;20125;-68
2022/01/13 13:57:54;;;;;;;36.70;16.20;;;;;;;;;;5010518;28;20165;-68
2022/01/13 14:00:23;;;;;;;39.17;14.60;;;;;;;;;;5011645;28;20280;-68
2022/01/13 14:02:52;;;;;;;42.63;15.10;;;;;;;;;;5010493;28;20038;-68
2022/01/13 14:05:18;;;;;;;46.58;15.85;;;;;;;;;;5011181;28;20041;-68
2022/01/13 14:07:44;;;;;;;37.42;14.13;;;;;;;;;;5011629;28;20030;-68
2022/01/13 14:10:12;;;;;;;43.15;14.88;;;;;;;;;;5011813;28;20026;-68
2022/01/13 14:12:42;;;;;;;36.22;15.10;;;;;;;;;;5011219;28;20037;-68
2022/01/13 14:15:10;;;;;;;44.35;15.98;;;;;;;;;;5011259;28;20557;-68
2022/01/13 14:17:35;;;;;;;40.47;13.43;;;;;;;;;;5010305;28;20031;-68
2022/01/13 14:20:05;;;;;;;38.22;15.50;;;;;;;;;;5009972;28;20025;-68
2022/01/13 14:22:30;;;;;;;44.83;16.42;;;;;;;;;;5011149;28;20032;-68
2022/01/13 14:24:57;;;;;;;42.00;13.98;;;;;;;;;;5008108;28;20113;-68
2022/01/13 14:27:23;;;;;;;40.45;14.57;;;;;;;;;;5022147;28;20049;-68
2022/01/13 14:29:50;;;;;;;37.20;14.05;;;;;;;;;;5010276;28;20049;-68